Time;durP1;ratioP1;P1;durP2;ratioP2;P2;SDS_P1;SDS_P2;PMS_P1;PMS_P2;Temp;Humidity;BMP_temperature;BMP_pressure;BME280_temperature;BME280_humidity;BME280_pressure;Samples;Min_cycle;Max_cycle;Signal;HPM_P1;HPM_P2
2024/01/27 00:00:14;;;;;;;30.55;5.75;;;;;;;2.85;100.00;103159.34;5010545;28;20037;-78
2024/01/27 00:02:43;;;;;;;29.83;5.10;;;;;;;2.84;100.00;103164.47;5003832;28;20057;-80
2024/01/27 00:05:10;;;;;;;28.33;4.55;;;;;;;2.80;100.00;103157.19;5028964;28;20041;-79
2024/01/27 00:07:38;;;;;;;20.38;4.75;;;;;;;2.77;100.00;103162.22;5022431;28;20057;-79
2024/01/27 00:10:06;;;;;;;25.52;5.13;;;;;;;2.77;100.00;103168.31;4995594;28;20045;-80
2024/01/27 00:12:34;;;;;;;29.35;3.88;;;;;;;2.76;100.00;103153.50;5021804;28;20060;-79
2024/01/27 00:15:01;;;;;;;29.35;5.05;;;;;;;2.77;100.00;103167.41;5007907;28;20057;-79
2024/01/27 00:17:29;;;;;;;22.60;4.22;;;;;;;2.78;100.00;103166.59;4999178;28;20049;-80
2024/01/27 00:19:56;;;;;;;33.55;4.65;;;;;;;2.79;100.00;103171.94;5010073;28;20454;-81
2024/01/27 00:22:23;;;;;;;25.73;4.57;;;;;;;2.79;100.00;103176.25;4990276;28;20053;-78
2024/01/27 00:24:51;;;;;;;22.42;5.50;;;;;;;2.78;100.00;103179.63;4975955;28;20060;-78
2024/01/27 00:27:18;;;;;;;29.02;4.78;;;;;;;2.76;100.00;103161.31;5010180;28;20058;-78
2024/01/27 00:29:46;;;;;;;28.88;4.90;;;;;;;2.75;100.00;103169.00;5007476;28;20087;-78
2024/01/27 00:32:13;;;;;;;26.90;5.15;;;;;;;2.73;100.00;103163.69;5018764;28;21013;-79
2024/01/27 00:34:41;;;;;;;31.48;4.90;;;;;;;2.72;100.00;103168.00;5001032;28;20049;-78
2024/01/27 00:37:08;;;;;;;26.67;5.13;;;;;;;2.72;100.00;103165.38;5009181;28;20062;-79
2024/01/27 00:39:36;;;;;;;29.58;4.68;;;;;;;2.70;100.00;103164.38;4968350;28;20033;-78
2024/01/27 00:42:03;;;;;;;24.58;4.47;;;;;;;2.70;100.00;103159.16;5008569;28;20053;-79
2024/01/27 00:44:30;;;;;;;27.98;5.10;;;;;;;2.72;100.00;103156.66;5011397;28;20049;-78
2024/01/27 00:46:58;;;;;;;32.95;4.07;;;;;;;2.75;100.00;103163.78;5000826;28;20098;-78
2024/01/27 00:49:25;;;;;;;27.92;4.70;;;;;;;2.77;100.00;103177.84;5025358;28;20054;-78
2024/01/27 00:51:53;;;;;;;27.20;5.13;;;;;;;2.78;100.00;103180.56;5008157;28;20053;-79
2024/01/27 00:54:20;;;;;;;25.40;4.20;;;;;;;2.79;100.00;103187.56;5020843;28;20045;-78
2024/01/27 00:56:48;;;;;;;22.17;4.28;;;;;;;2.80;100.00;103183.25;4976519;28;20056;-78
2024/01/27 00:59:15;;;;;;;29.30;5.40;;;;;;;2.79;100.00;103186.66;5026539;28;20041;-78
2024/01/27 01:01:43;;;;;;;18.98;4.32;;;;;;;2.76;100.00;103192.56;5010211;28;20037;-79
2024/01/27 01:04:10;;;;;;;27.13;5.25;;;;;;;2.75;100.00;103187.22;5021362;28;20037;-78
2024/01/27 01:06:41;;;;;;;23.08;4.80;;;;;;;2.72;100.00;103188.81;5010548;28;20053;-78
2024/01/27 01:09:08;;;;;;;31.10;4.88;;;;;;;2.70;100.00;103193.03;4983121;28;20057;-78
2024/01/27 01:11:39;;;;;;;22.83;4.82;;;;;;;2.70;100.00;103200.81;4960595;28;20042;-78
2024/01/27 01:14:06;;;;;;;;;;;;;;;2.69;100.00;103187.69;5001267;28;20046;-78
2024/01/27 01:16:34;;;;;;;34.40;5.57;;;;;;;2.69;100.00;103200.72;5009568;28;19928;-78
2024/01/27 01:19:01;;;;;;;30.70;4.07;;;;;;;2.68;100.00;103193.69;4993742;28;20068;-79
2024/01/27 01:21:29;;;;;;;28.70;4.05;;;;;;;2.67;100.00;103203.19;5010545;28;20056;-79
2024/01/27 01:23:57;;;;;;;22.95;4.60;;;;;;;2.66;100.00;103200.47;5018231;28;20173;-79
2024/01/27 01:26:25;;;;;;;30.25;4.38;;;;;;;2.64;100.00;103208.16;4989631;28;20041;-78
2024/01/27 01:28:52;;;;;;;23.58;5.03;;;;;;;2.63;100.00;103210.69;5007755;28;20498;-78
2024/01/27 01:31:19;;;;;;;43.33;5.97;;;;;;;2.61;100.00;103209.63;4994980;28;20829;-78
2024/01/27 01:33:47;;;;;;;30.88;4.80;;;;;;;2.59;100.00;103214.75;4985910;28;20413;-78
2024/01/27 01:36:14;;;;;;;18.63;4.32;;;;;;;2.57;100.00;103216.34;5009324;28;20045;-78
2024/01/27 01:38:42;;;;;;;29.00;4.65;;;;;;;2.56;100.00;103209.31;4993484;28;20053;-77
2024/01/27 01:41:10;;;;;;;23.70;4.78;;;;;;;2.52;100.00;103205.56;4989985;28;20041;-78
2024/01/27 01:43:37;;;;;;;34.22;5.07;;;;;;;2.51;100.00;103215.88;4976310;28;20046;-78
2024/01/27 01:46:05;;;;;;;35.33;4.88;;;;;;;2.51;100.00;103208.06;5024932;28;20049;-78
2024/01/27 01:48:33;;;;;;;25.88;4.50;;;;;;;2.48;100.00;103216.56;4998439;28;20034;-78
2024/01/27 01:51:01;;;;;;;18.55;3.88;;;;;;;2.48;100.00;103216.56;5006764;28;20057;-78
2024/01/27 01:53:29;;;;;;;25.70;4.07;;;;;;;2.48;100.00;103221.75;5009461;28;20046;-78
2024/01/27 01:55:56;;;;;;;23.58;4.43;;;;;;;2.46;100.00;103217.25;5002434;28;20061;-78
2024/01/27 01:58:24;;;;;;;22.50;4.05;;;;;;;2.43;100.00;103220.50;4975556;28;20037;-78
2024/01/27 02:00:51;;;;;;;28.67;4.60;;;;;;;2.41;100.00;103213.38;5012286;28;20046;-78
2024/01/27 02:03:19;;;;;;;33.13;5.60;;;;;;;2.36;100.00;103214.72;5019671;28;20071;-78
2024/01/27 02:05:46;;;;;;;34.30;4.45;;;;;;;2.32;100.00;103216.19;5009385;28;20045;-78
2024/01/27 02:08:14;;;;;;;29.40;5.03;;;;;;;2.31;100.00;103212.69;5008545;28;20491;-78
2024/01/27 02:10:41;;;;;;;32.30;4.88;;;;;;;2.30;100.00;103210.88;5026552;28;20034;-78
2024/01/27 02:13:19;;;;;;;28.60;4.57;;;;;;;2.31;100.00;103220.50;4976670;28;20053;-78
2024/01/27 02:15:48;;;;;;;23.05;4.72;;;;;;;2.32;100.00;103226.59;5007554;28;20053;-78
2024/01/27 02:18:16;;;;;;;33.80;4.90;;;;;;;2.32;100.00;103217.09;5026271;28;20061;-78
2024/01/27 02:20:44;;;;;;;29.25;4.85;;;;;;;2.34;100.00;103219.81;5020626;28;20041;-78
2024/01/27 02:23:11;;;;;;;31.30;5.68;;;;;;;2.36;100.00;103217.34;5025728;28;20064;-78
2024/01/27 02:25:39;;;;;;;29.60;5.22;;;;;;;2.36;100.00;103210.41;5009109;28;20045;-78
2024/01/27 02:28:06;;;;;;;26.50;3.92;;;;;;;2.38;100.00;103213.16;4947406;28;20077;-78
2024/01/27 02:30:34;;;;;;;31.13;5.07;;;;;;;2.37;100.00;103217.44;4991179;28;20046;-78
2024/01/27 02:33:01;;;;;;;18.58;3.55;;;;;;;2.39;100.00;103212.38;5007956;28;20049;-78
2024/01/27 02:35:29;;;;;;;22.92;5.25;;;;;;;2.38;100.00;103213.16;5002573;28;20052;-78
2024/01/27 02:37:57;;;;;;;34.30;5.32;;;;;;;2.36;100.00;103215.63;4987214;28;20057;-78
2024/01/27 02:40:24;;;;;;;21.80;4.32;;;;;;;2.34;100.00;103215.53;4989672;28;20058;-78
2024/01/27 02:42:52;;;;;;;22.42;3.95;;;;;;;2.35;100.00;103216.44;4978697;28;20053;-78
2024/01/27 02:45:20;;;;;;;27.13;5.20;;;;;;;2.33;100.00;103213.72;4998208;28;20041;-78
2024/01/27 02:47:47;;;;;;;23.35;4.32;;;;;;;2.33;100.00;103211.09;5026956;28;20056;-78
2024/01/27 02:50:15;;;;;;;34.65;6.47;;;;;;;2.33;100.00;103208.50;5018165;28;20427;-77
2024/01/27 02:52:42;;;;;;;21.85;4.22;;;;;;;2.33;100.00;103211.09;5016406;28;20046;-78
2024/01/27 02:55:10;;;;;;;31.30;5.40;;;;;;;2.33;100.00;103213.72;4993537;28;20049;-78
2024/01/27 02:57:38;;;;;;;19.00;3.97;;;;;;;2.36;100.00;103218.22;4993191;28;20411;-78
2024/01/27 03:00:05;;;;;;;18.88;4.28;;;;;;;2.36;100.00;103230.34;4973506;28;20052;-78
2024/01/27 03:02:33;;;;;;;22.70;4.53;;;;;;;2.38;100.00;103228.75;5009002;28;20396;-78
2024/01/27 03:05:00;;;;;;;22.42;4.38;;;;;;;2.36;100.00;103227.75;4996826;28;20045;-78
2024/01/27 03:07:28;;;;;;;25.63;4.22;;;;;;;2.39;100.00;103235.78;5001370;28;20046;-78
2024/01/27 03:09:55;;;;;;;16.50;3.50;;;;;;;2.38;100.00;103232.25;5015459;28;20042;-77
2024/01/27 03:12:23;;;;;;;25.65;4.45;;;;;;;2.36;100.00;103236.44;5012021;28;20084;-78
2024/01/27 03:14:51;;;;;;;32.92;4.55;;;;;;;2.36;100.00;103222.53;4980465;28;20045;-78
2024/01/27 03:17:19;;;;;;;28.98;4.55;;;;;;;2.34;100.00;103225.94;5033748;28;20045;-78
2024/01/27 03:19:46;;;;;;;26.23;4.30;;;;;;;2.33;100.00;103231.94;5013579;28;20442;-78
2024/01/27 03:22:16;;;;;;;24.33;4.50;;;;;;;2.33;100.00;103237.13;4992525;28;20052;-77
2024/01/27 03:24:43;;;;;;;19.63;4.20;;;;;;;2.33;100.00;103221.53;5013917;28;20045;-78
2024/01/27 03:27:10;;;;;;;32.08;5.57;;;;;;;2.34;100.00;103228.56;5012552;28;20046;-78
2024/01/27 03:29:38;;;;;;;22.13;4.22;;;;;;;2.33;100.00;103228.44;4954767;28;20402;-78
2024/01/27 03:32:05;;;;;;;28.23;3.78;;;;;;;2.31;100.00;103227.41;5002373;28;20062;-78
2024/01/27 03:34:33;;;;;;;24.60;3.88;;;;;;;2.28;100.00;103232.38;5014257;28;20426;-78
2024/01/27 03:37:01;;;;;;;34.42;5.30;;;;;;;2.28;100.00;103241.06;5006400;28;20541;-78
2024/01/27 03:39:28;;;;;;;23.73;4.15;;;;;;;2.25;100.00;103238.25;5023192;28;20054;-79
2024/01/27 03:41:56;;;;;;;27.33;4.72;;;;;;;2.23;100.00;103234.63;4999450;28;20053;-78
2024/01/27 03:44:24;;;;;;;19.40;3.92;;;;;;;2.21;100.00;103235.28;5010975;28;20060;-78
2024/01/27 03:46:51;;;;;;;18.83;4.75;;;;;;;2.17;100.00;103228.94;4972870;28;20053;-77
2024/01/27 03:49:18;;;;;;;23.45;4.00;;;;;;;2.16;100.00;103232.38;5015112;28;20050;-78
2024/01/27 03:51:46;;;;;;;27.10;4.63;;;;;;;2.11;100.00;103224.19;5022700;28;20042;-78
2024/01/27 03:54:13;;;;;;;22.92;4.82;;;;;;;2.10;100.00;103217.19;5023394;28;20049;-78
2024/01/27 03:56:41;;;;;;;25.13;4.53;;;;;;;2.07;100.00;103229.97;5031498;28;20049;-77
2024/01/27 03:59:10;;;;;;;16.92;4.22;;;;;;;2.05;100.00;103239.34;5016193;28;20048;-78
2024/01/27 04:01:38;;;;;;;21.02;4.45;;;;;;;2.04;100.00;103236.63;4956961;28;20061;-79
2024/01/27 04:04:05;;;;;;;20.13;4.00;;;;;;;2.02;100.00;103239.09;5031087;28;20061;-78
2024/01/27 04:06:40;;;;;;;22.42;4.95;;;;;;;2.02;100.00;103235.59;4996540;28;20053;-79
2024/01/27 04:09:11;;;;;;;30.83;4.20;;;;;;;2.00;100.00;103247.56;4985954;28;20049;-78
2024/01/27 04:11:39;;;;;;;24.23;3.95;;;;;;;2.00;100.00;103234.56;5012753;28;20046;-79
2024/01/27 04:14:07;;;;;;;19.23;3.95;;;;;;;1.97;100.00;103237.88;5033693;28;20506;-78
2024/01/27 04:16:35;;;;;;;21.67;4.63;;;;;;;1.97;100.00;103242.13;4992190;28;20056;-78
2024/01/27 04:19:04;;;;;;;27.33;4.00;;;;;;;1.94;100.00;103240.22;5016099;28;20046;-78
2024/01/27 04:21:31;;;;;;;27.08;4.80;;;;;;;1.93;100.00;103239.31;5012868;28;20049;-78
2024/01/27 04:23:59;;;;;;;25.00;4.35;;;;;;;1.92;100.00;103241.78;5001806;28;20049;-77
2024/01/27 04:26:26;;;;;;;20.00;4.57;;;;;;;1.91;100.00;103239.97;5013147;28;20053;-78
2024/01/27 04:28:54;;;;;;;26.88;4.22;;;;;;;1.90;100.00;103244.28;5010202;28;20875;-78
2024/01/27 04:31:21;;;;;;;21.63;3.80;;;;;;;1.89;100.00;103244.16;4979035;28;20053;-78
2024/01/27 04:33:48;;;;;;;25.42;4.22;;;;;;;1.86;100.00;103243.94;5024947;28;20060;-78
2024/01/27 04:36:25;;;;;;;32.72;4.85;;;;;;;1.84;100.00;103243.81;5011733;28;20418;-77
2024/01/27 04:38:53;;;;;;;23.13;4.43;;;;;;;1.84;100.00;103240.31;5000402;28;20053;-78
2024/01/27 04:41:20;;;;;;;20.23;4.00;;;;;;;1.82;100.00;103241.88;5012540;28;20049;-80
2024/01/27 04:43:48;;;;;;;21.25;3.88;;;;;;;1.81;100.00;103240.97;5027740;28;20041;-78
2024/01/27 04:46:15;;;;;;;27.40;4.95;;;;;;;1.80;100.00;103240.88;4979635;28;20057;-78
2024/01/27 04:48:43;;;;;;;23.88;3.60;;;;;;;1.80;100.00;103241.75;5026353;28;20068;-78
2024/01/27 04:51:10;;;;;;;23.45;4.40;;;;;;;1.82;100.00;103240.19;5011338;28;20042;-78
2024/01/27 04:53:38;;;;;;;26.88;5.15;;;;;;;1.82;100.00;103247.09;5003169;28;20046;-78
2024/01/27 04:56:09;;;;;;;24.45;4.28;;;;;;;1.81;100.00;103233.16;4993654;28;20053;-78
2024/01/27 04:58:37;;;;;;;17.52;4.72;;;;;;;1.81;100.00;103230.56;5009791;28;20053;-78
2024/01/27 05:01:04;;;;;;;32.58;4.93;;;;;;;1.81;100.00;103221.88;4969048;28;20045;-78
2024/01/27 05:03:32;;;;;;;19.08;4.43;;;;;;;1.81;100.00;103233.16;5013298;28;20050;-78
2024/01/27 05:05:59;;;;;;;31.13;4.32;;;;;;;1.81;100.00;103227.06;4985682;28;20053;-79
2024/01/27 05:08:27;;;;;;;18.33;4.82;;;;;;;1.79;100.00;103228.63;5006734;28;20048;-78
2024/01/27 05:10:54;;;;;;;23.15;4.70;;;;;;;1.78;100.00;103235.53;4997638;28;20038;-78
2024/01/27 05:13:25;;;;;;;18.88;3.92;;;;;;;1.78;100.00;103230.34;4997261;28;20116;-78
2024/01/27 05:15:53;;;;;;;20.45;4.70;;;;;;;1.79;100.00;103229.53;5001803;28;20054;-77
2024/01/27 05:18:20;;;;;;;29.75;5.00;;;;;;;1.80;100.00;103226.16;4962846;28;20080;-79
2024/01/27 05:20:48;;;;;;;23.15;4.68;;;;;;;1.82;100.00;103218.50;5007589;28;20057;-77
2024/01/27 05:23:15;;;;;;;26.08;4.13;;;;;;;1.84;100.00;103215.22;4999090;28;20045;-77
2024/01/27 05:25:43;;;;;;;21.45;4.75;;;;;;;1.88;100.00;103225.03;4981737;28;20049;-76
2024/01/27 05:28:10;;;;;;;27.98;3.90;;;;;;;1.92;100.00;103221.88;5003036;28;20514;-77
2024/01/27 05:30:38;;;;;;;25.00;3.58;;;;;;;1.94;100.00;103224.63;5006265;28;20053;-77
2024/01/27 05:33:05;;;;;;;22.70;3.50;;;;;;;1.97;100.00;103237.88;4986251;28;20047;-78
2024/01/27 05:35:33;;;;;;;21.85;5.38;;;;;;;1.99;100.00;103243.19;4991538;28;20053;-78
2024/01/27 05:38:00;;;;;;;30.95;4.32;;;;;;;1.99;100.00;103235.38;5000291;28;20064;-77
2024/01/27 05:40:27;;;;;;;21.38;3.45;;;;;;;1.98;100.00;103242.25;4999154;28;20046;-78
2024/01/27 05:42:55;;;;;;;20.08;3.72;;;;;;;1.98;100.00;103247.47;4987928;28;20050;-78
2024/01/27 05:45:22;;;;;;;29.25;4.78;;;;;;;1.98;100.00;103243.97;4997548;28;20042;-78
2024/01/27 05:47:50;;;;;;;26.08;4.10;;;;;;;1.95;100.00;103235.13;4997888;28;20068;-77
2024/01/27 05:50:18;;;;;;;31.73;4.43;;;;;;;1.95;100.00;103247.25;4992429;28;20048;-77
2024/01/27 05:52:45;;;;;;;20.70;5.47;;;;;;;1.96;100.00;103243.84;5007653;28;20475;-77
2024/01/27 05:55:13;;;;;;;25.13;3.58;;;;;;;1.94;100.00;103256.72;4981783;28;20057;-77
2024/01/27 05:57:40;;;;;;;20.85;4.70;;;;;;;1.93;100.00;103249.72;5031219;28;20057;-77
2024/01/27 06:00:09;;;;;;;25.40;4.28;;;;;;;1.93;100.00;103252.31;5005648;28;20061;-78
2024/01/27 06:02:37;;;;;;;17.33;2.90;;;;;;;1.93;100.00;103259.22;5007597;28;20049;-78
2024/01/27 06:05:04;;;;;;;28.58;4.20;;;;;;;1.89;100.00;103260.69;4990929;28;20053;-78
2024/01/27 06:07:32;;;;;;;22.05;3.28;;;;;;;1.88;100.00;103260.56;5011484;28;20060;-77
2024/01/27 06:10:00;;;;;;;19.70;3.40;;;;;;;1.85;100.00;103257.69;5017840;28;20410;-78
2024/01/27 06:12:27;;;;;;;25.08;4.15;;;;;;;1.83;100.00;103267.97;4984529;28;20499;-78
2024/01/27 06:14:54;;;;;;;23.08;4.07;;;;;;;1.80;100.00;103259.97;5019929;28;20049;-78
2024/01/27 06:17:22;;;;;;;21.70;3.97;;;;;;;1.79;100.00;103260.72;5010358;28;20056;-77
2024/01/27 06:19:49;;;;;;;20.50;3.95;;;;;;;1.79;100.00;103265.03;5005932;28;20083;-77
2024/01/27 06:22:17;;;;;;;27.08;4.88;;;;;;;1.79;100.00;103265.03;4989605;28;20045;-78
2024/01/27 06:24:44;;;;;;;24.95;4.95;;;;;;;1.78;100.00;103271.94;5013158;28;20049;-78
2024/01/27 06:27:12;;;;;;;32.92;4.55;;;;;;;1.77;100.00;103272.72;5008782;28;20057;-78
2024/01/27 06:29:41;;;;;;;17.45;3.35;;;;;;;1.77;100.00;103275.31;5019315;28;20045;-77
2024/01/27 06:32:09;;;;;;;19.95;3.40;;;;;;;1.77;100.00;103277.91;5004244;28;20048;-77
2024/01/27 06:34:39;;;;;;;25.25;3.75;;;;;;;1.76;100.00;103291.72;5023086;28;20057;-78
2024/01/27 06:37:07;;;;;;;24.20;3.97;;;;;;;1.74;100.00;103288.09;4992481;28;20052;-78
2024/01/27 06:39:34;;;;;;;19.52;3.60;;;;;;;1.73;100.00;103299.25;5018524;28;20053;-78
2024/01/27 06:42:02;;;;;;;26.10;4.13;;;;;;;1.72;100.00;103298.38;5005008;28;20514;-78
2024/01/27 06:44:30;;;;;;;25.77;3.92;;;;;;;1.70;100.00;103297.34;4986336;28;20056;-78
2024/01/27 06:46:57;;;;;;;25.65;5.20;;;;;;;1.69;100.00;103287.72;5005076;28;20053;-78
2024/01/27 06:49:25;;;;;;;21.92;3.90;;;;;;;1.65;100.00;103285.66;5006910;28;20045;-78
2024/01/27 06:51:52;;;;;;;24.08;3.53;;;;;;;1.64;100.00;103290.72;4966800;28;20497;-78
2024/01/27 06:54:20;;;;;;;25.10;4.63;;;;;;;1.61;100.00;103287.88;5006340;28;20050;-78
2024/01/27 06:56:47;;;;;;;26.17;3.85;;;;;;;1.60;100.00;103293.88;4998553;28;20137;-78
2024/01/27 06:59:15;;;;;;;28.15;4.60;;;;;;;1.57;100.00;103299.75;4998275;28;20056;-78
2024/01/27 07:01:48;;;;;;;15.52;3.50;;;;;;;1.57;100.00;103299.75;5003839;28;20487;-78
2024/01/27 07:04:15;;;;;;;18.25;3.67;;;;;;;1.58;100.00;103308.44;5022518;28;20064;-78
2024/01/27 07:06:43;;;;;;;23.50;3.47;;;;;;;1.56;100.00;103296.22;4957577;28;20076;-78
2024/01/27 07:09:11;;;;;;;20.67;4.38;;;;;;;1.58;100.00;103300.66;5012103;28;20060;-77
2024/01/27 07:11:39;;;;;;;22.42;4.15;;;;;;;1.57;100.00;103310.16;4981667;28;20045;-77
2024/01/27 07:14:06;;;;;;;30.30;5.15;;;;;;;1.57;100.00;103299.75;4983905;28;20049;-77
2024/01/27 07:16:34;;;;;;;24.58;4.47;;;;;;;1.56;100.00;103306.63;4994645;28;20054;-78
2024/01/27 07:19:02;;;;;;;20.23;4.30;;;;;;;1.56;100.00;103304.03;5005548;28;20525;-77
2024/01/27 07:21:31;;;;;;;36.33;4.80;;;;;;;1.59;100.00;103310.25;5008050;28;20041;-78
2024/01/27 07:23:59;;;;;;;30.05;4.30;;;;;;;1.57;100.00;103304.97;4990578;28;20052;-77
2024/01/27 07:26:26;;;;;;;24.23;3.85;;;;;;;1.57;100.00;103312.75;5000658;28;20041;-77
2024/01/27 07:28:54;;;;;;;19.02;3.20;;;;;;;1.57;100.00;103310.16;5024118;28;20418;-79
2024/01/27 07:31:22;;;;;;;25.73;4.60;;;;;;;1.58;100.00;103308.44;5002629;28;20042;-77
2024/01/27 07:33:50;;;;;;;23.58;4.00;;;;;;;1.56;100.00;103296.22;5007916;28;20080;-79
2024/01/27 07:36:18;;;;;;;27.02;4.63;;;;;;;1.56;100.00;103323.91;5029315;28;20061;-79
2024/01/27 07:38:45;;;;;;;22.83;3.58;;;;;;;1.54;100.00;103305.59;4962610;28;20045;-79
2024/01/27 07:41:13;;;;;;;24.02;4.72;;;;;;;1.56;100.00;103311.81;4998742;28;20636;-78
2024/01/27 07:43:43;;;;;;;18.30;3.50;;;;;;;1.55;100.00;103314.28;5008435;28;20041;-79
2024/01/27 07:46:10;;;;;;;25.15;5.00;;;;;;;1.55;100.00;103314.28;4980284;28;20476;-79
2024/01/27 07:48:38;;;;;;;26.80;4.25;;;;;;;1.55;100.00;103322.09;4989884;28;20053;-79
2024/01/27 07:51:06;;;;;;;30.23;4.30;;;;;;;1.54;100.00;103326.38;5009320;28;20076;-79
2024/01/27 07:53:34;;;;;;;22.00;3.85;;;;;;;1.53;100.00;103309.00;4990534;28;20560;-79
2024/01/27 07:56:01;;;;;;;20.23;3.55;;;;;;;1.54;100.00;103312.50;4991332;28;20061;-77
2024/01/27 07:58:31;;;;;;;14.07;3.72;;;;;;;1.54;100.00;103313.41;4993023;28;20066;-78
2024/01/27 08:01:00;;;;;;;29.90;3.67;;;;;;;1.56;100.00;103310.94;4999291;28;22160;-77
2024/01/27 08:03:27;;;;;;;25.58;3.97;;;;;;;1.59;100.00;103323.25;5001812;28;20049;-79
2024/01/27 08:05:55;;;;;;;25.38;4.28;;;;;;;1.61;100.00;103322.59;5013199;28;20080;-79
2024/01/27 08:08:23;;;;;;;28.48;4.00;;;;;;;1.63;100.00;103314.94;5027001;28;20053;-79
2024/01/27 08:10:50;;;;;;;27.92;4.25;;;;;;;1.66;100.00;103326.44;4977616;28;20064;-79
2024/01/27 08:13:18;;;;;;;21.17;4.10;;;;;;;1.70;100.00;103328.53;5009316;28;20061;-78
2024/01/27 08:15:45;;;;;;;29.67;4.13;;;;;;;1.74;100.00;103337.47;5001418;28;20052;-79
2024/01/27 08:18:13;;;;;;;21.25;4.18;;;;;;;1.78;100.00;103343.81;5007801;28;20053;-79
2024/01/27 08:20:40;;;;;;;15.60;4.20;;;;;;;1.82;100.00;103351.09;5009057;28;20056;-79
2024/01/27 08:23:09;;;;;;;20.73;3.70;;;;;;;1.87;100.00;103353.25;4985852;28;20060;-78
2024/01/27 08:25:36;;;;;;;21.83;4.28;;;;;;;1.92;100.00;103353.59;4977101;28;20517;-79
2024/01/27 08:28:04;;;;;;;25.83;4.00;;;;;;;1.98;100.00;103340.19;4986774;28;20069;-78
2024/01/27 08:30:31;;;;;;;26.13;4.38;;;;;;;2.04;100.00;103343.25;4991121;28;20744;-77
2024/01/27 08:32:59;;;;;;;32.35;5.22;;;;;;;2.12;100.00;103344.78;4986698;28;20571;-78
2024/01/27 08:35:27;;;;;;;24.58;4.05;;;;;;;2.20;100.00;103348.88;4989123;28;20483;-79
2024/01/27 08:37:54;;;;;;;23.35;4.75;;;;;;;2.27;100.00;103353.75;5010976;28;20887;-79
2024/01/27 08:40:22;;;;;;;19.33;4.13;;;;;;;2.35;100.00;103351.75;4984078;28;20056;-79
2024/01/27 08:42:49;;;;;;;23.58;4.00;;;;;;;2.42;100.00;103345.31;5010350;28;20045;-78
2024/01/27 08:45:16;;;;;;;31.92;4.95;;;;;;;2.48;100.00;103349.28;5008356;28;20049;-78
2024/01/27 08:47:44;;;;;;;24.95;5.32;;;;;;;2.53;100.00;103345.34;5024291;28;20057;-78
2024/01/27 08:50:11;;;;;;;23.58;4.85;;;;;;;2.59;100.00;103339.72;5004446;28;20065;-79
2024/01/27 08:52:39;;;;;;;23.65;4.57;;;;;;;2.64;100.00;103340.94;5008676;28;20052;-79
2024/01/27 08:55:07;;;;;;;23.30;4.57;;;;;;;2.67;100.00;103338.56;4984007;28;20065;-79
2024/01/27 08:57:35;;;;;;;29.75;5.65;;;;;;;2.72;100.00;103338.91;4970835;28;20037;-78
2024/01/27 09:00:03;;;;;;;28.85;6.20;;;;;;;2.76;100.00;103329.63;5008581;28;20050;-79
2024/01/27 09:02:31;;;;;;;25.20;4.13;;;;;;;2.79;100.00;103337.69;4988241;28;20061;-81
2024/01/27 09:04:58;;;;;;;26.50;5.30;;;;;;;2.85;100.00;103327.72;4996487;28;20050;-78
2024/01/27 09:07:27;;;;;;;25.08;5.40;;;;;;;2.90;100.00;103335.09;4987955;28;20044;-78
2024/01/27 09:09:54;;;;;;;20.45;4.75;;;;;;;2.95;100.00;103335.44;4990732;28;20165;-78
2024/01/27 09:12:22;;;;;;;24.52;5.13;;;;;;;3.01;100.00;103345.41;4971155;28;20043;-78
2024/01/27 09:14:49;;;;;;;25.17;5.03;;;;;;;3.06;100.00;103337.13;4986425;28;20054;-78
2024/01/27 09:17:17;;;;;;;23.58;4.68;;;;;;;3.11;100.00;103340.97;5019268;28;20044;-78
2024/01/27 09:19:44;;;;;;;25.73;5.13;;;;;;;3.20;100.00;103342.47;4990623;28;20061;-78
2024/01/27 09:22:12;;;;;;;20.85;4.90;;;;;;;3.25;100.00;103341.06;5003230;28;20462;-79
2024/01/27 09:24:40;;;;;;;23.13;4.30;;;;;;;3.31;100.00;103346.75;4955636;28;20045;-79
2024/01/27 09:27:08;;;;;;;26.33;4.93;;;;;;;3.37;100.00;103341.97;4977714;28;20499;-79
2024/01/27 09:29:36;;;;;;;22.15;4.53;;;;;;;3.42;100.00;103350.13;4967735;28;20044;-78
2024/01/27 09:32:04;;;;;;;21.80;4.38;;;;;;;3.48;100.00;103342.75;4993052;28;20061;-78
2024/01/27 09:34:31;;;;;;;27.63;6.07;;;;;;;3.55;100.00;103347.59;5026250;28;20041;-78
2024/01/27 09:36:58;;;;;;;26.17;5.80;;;;;;;3.61;100.00;103347.13;5003677;28;20416;-79
2024/01/27 09:39:26;;;;;;;22.15;5.03;;;;;;;3.68;100.00;103365.03;5008363;28;20049;-79
2024/01/27 09:41:55;;;;;;;21.67;4.47;;;;;;;3.74;100.00;103368.06;5010964;28;20053;-79
2024/01/27 09:44:25;;;;;;;20.85;4.65;;;;;;;3.80;100.00;103358.09;4964806;28;20057;-79
2024/01/27 09:46:53;;;;;;;22.60;6.43;;;;;;;3.85;100.00;103364.53;4985141;28;20065;-78
2024/01/27 09:49:21;;;;;;;28.30;5.65;;;;;;;3.92;100.00;103365.88;5006022;28;20053;-78
2024/01/27 09:51:48;;;;;;;22.05;5.68;;;;;;;3.98;100.00;103362.81;5009028;28;20057;-79
2024/01/27 09:54:17;;;;;;;22.20;4.60;;;;;;;4.04;100.00;103369.34;5000064;28;20046;-78
2024/01/27 09:56:46;;;;;;;20.27;5.53;;;;;;;4.11;100.00;103362.88;5009658;28;20052;-78
2024/01/27 09:59:17;;;;;;;23.67;5.55;;;;;;;4.14;100.00;103365.69;4977869;28;20041;-79
2024/01/27 10:01:45;;;;;;;24.33;5.25;;;;;;;4.20;100.00;103357.38;4992456;28;20056;-79
2024/01/27 10:04:13;;;;;;;22.98;6.53;;;;;;;4.25;100.00;103355.97;5003284;28;20037;-79
2024/01/27 10:06:41;;;;;;;26.10;5.78;;;;;;;4.29;100.00;103364.16;5014300;28;20053;-79
2024/01/27 10:09:09;;;;;;;20.77;5.30;;;;;;;4.35;100.00;103374.09;4999146;28;20053;-79
2024/01/27 10:11:41;;;;;;;19.92;5.78;;;;;;;4.41;100.00;103382.34;5008406;28;20045;-79
2024/01/27 10:14:08;;;;;;;17.92;6.40;;;;;;;4.44;100.00;103379.97;4985798;28;21366;-78
2024/01/27 10:16:43;;;;;;;25.63;6.18;;;;;;;4.51;100.00;103385.59;5002110;28;20140;-79
2024/01/27 10:19:21;;;;;;;25.92;6.85;;;;;;;4.56;100.00;103382.50;5004451;28;20057;-78
2024/01/27 10:21:59;;;;;;;23.98;6.00;;;;;;;4.61;100.00;103396.78;4995280;28;20060;-78
2024/01/27 10:24:26;;;;;;;24.00;6.22;;;;;;;4.67;100.00;103393.69;5002973;28;20041;-79
2024/01/27 10:27:03;;;;;;;23.08;6.45;;;;;;;4.75;100.00;103394.22;5014449;28;20415;-78
2024/01/27 10:29:31;;;;;;;36.85;7.60;;;;;;;4.81;100.00;103394.63;4962441;28;20060;-78
2024/01/27 10:32:09;;;;;;;16.15;5.70;;;;;;;4.89;100.00;103398.66;5001283;28;20063;-78
2024/01/27 10:34:36;;;;;;;19.70;6.05;;;;;;;4.94;100.00;103392.03;5022367;28;20505;-79
2024/01/27 10:37:04;;;;;;;20.90;6.60;;;;;;;5.01;100.00;103396.88;4991496;28;20503;-79
2024/01/27 10:39:31;;;;;;;23.40;6.40;;;;;;;5.05;100.00;103404.09;5017127;28;20057;-79
2024/01/27 10:42:03;;;;;;;28.38;6.60;;;;;;;5.10;100.00;103407.00;4990517;28;20053;-78
2024/01/27 10:44:32;;;;;;;18.17;5.85;;;;;;;5.16;100.00;103407.44;4992649;28;20438;-78
2024/01/27 10:47:03;;;;;;;22.70;5.78;;;;;;;5.22;100.00;103407.84;4974932;28;20046;-77
2024/01/27 10:49:35;;;;;;;14.80;5.45;;;;;;;5.27;100.00;103411.69;4984935;28;20064;-79
2024/01/27 10:52:11;;;;;;;25.45;6.05;;;;;;;5.34;100.00;103402.50;4980669;28;23476;-77
2024/01/27 10:54:43;;;;;;;19.33;6.38;;;;;;;5.40;100.00;103409.84;4991152;28;20040;-77
2024/01/27 10:57:12;;;;;;;33.13;6.88;;;;;;;5.46;100.00;103419.00;4996057;28;20041;-78
2024/01/27 10:59:43;;;;;;;22.40;5.25;;;;;;;5.51;100.00;103408.84;5008616;28;20041;-78
2024/01/27 11:02:15;;;;;;;15.68;4.55;;;;;;;5.59;100.00;103409.31;4968234;28;20041;-78
2024/01/27 11:04:43;;;;;;;18.65;7.00;;;;;;;5.64;100.00;103403.59;4997349;28;20418;-78
2024/01/27 11:07:12;;;;;;;18.15;5.97;;;;;;;5.68;100.00;103399.47;4993032;28;20053;-78
2024/01/27 11:09:39;;;;;;;20.42;6.00;;;;;;;5.75;100.00;103411.25;4988414;28;20056;-78
2024/01/27 11:12:09;;;;;;;22.90;4.70;;;;;;;5.82;100.00;103406.50;5009971;28;20064;-78
2024/01/27 11:14:37;;;;;;;19.63;5.90;;;;;;;5.91;100.00;103402.63;5014853;28;20065;-77
2024/01/27 11:17:09;;;;;;;18.00;4.80;;;;;;;5.96;100.00;103398.63;4962070;28;20053;-78
2024/01/27 11:19:36;;;;;;;12.40;4.65;;;;;;;6.03;100.00;103404.34;5000063;28;20053;-77